Time,TemperatureF,DewpointF,PressureIn,WindDirection,WindDirectionDegrees,WindSpeedMPH,WindSpeedGustMPH,Humidity,HourlyPrecipIn,Conditions,Clouds,dailyrainin,SoftwareType,DateUTC
2013-04-05 00:00:00,59.8,58.9,29.77,SE,138,4.0,18.0,97,0.05,,,0.95,Wunderground v.1.15,2013-04-05 04:00:00,
2013-04-05 00:03:00,59.8,58.9,29.77,SE,146,7.0,14.0,97,0.05,,,0.95,Wunderground v.1.15,2013-04-05 04:03:00,
2013-04-05 00:08:00,60.2,59.3,29.76,SSE,148,6.0,18.0,97,0.05,,,0.95,Wunderground v.1.15,2013-04-05 04:08:00,
2013-04-05 00:13:00,60.2,59.3,29.75,SSE,159,11.0,17.0,97,0.00,,,0.95,Wunderground v.1.15,2013-04-05 04:13:00,
2013-04-05 00:18:00,60.3,59.4,29.75,SSE,162,11.0,21.0,97,0.00,,,0.95,Wunderground v.1.15,2013-04-05 04:18:00,
2013-04-05 00:23:00,60.4,59.3,29.74,SSE,157,5.0,16.0,96,0.00,,,0.95,Wunderground v.1.15,2013-04-05 04:23:00,
2013-04-05 00:29:00,60.8,59.9,29.74,SSE,162,10.0,19.0,97,0.00,,,0.96,Wunderground v.1.15,2013-04-05 04:29:00,
2013-04-05 00:34:00,60.9,59.8,29.73,South,170,11.0,17.0,96,0.00,,,0.96,Wunderground v.1.15,2013-04-05 04:34:00,
2013-04-05 00:39:00,60.8,59.7,29.72,SSE,152,10.0,17.0,96,0.14,,,0.97,Wunderground v.1.15,2013-04-05 04:39:00,
2013-04-05 00:45:00,60.9,59.8,29.71,SSE,159,13.0,13.0,96,0.18,,,0.99,Wunderground v.1.15,2013-04-05 04:45:00,
2013-04-05 00:50:00,61.0,59.9,29.70,South,171,15.0,15.0,96,0.16,,,1.01,Wunderground v.1.15,2013-04-05 04:50:00,
2013-04-05 00:56:00,61.3,60.2,29.71,SSE,160,11.0,17.0,96,0.20,,,1.03,Wunderground v.1.15,2013-04-05 04:56:00,
2013-04-05 01:02:00,61.3,60.2,29.70,SSE,155,11.0,18.0,96,0.09,,,1.03,Wunderground v.1.15,2013-04-05 05:02:00,
2013-04-05 01:07:00,61.3,60.2,29.70,South,179,10.0,18.0,96,0.09,,,1.04,Wunderground v.1.15,2013-04-05 05:07:00,
2013-04-05 01:12:00,61.4,60.2,29.71,South,185,19.0,25.0,96,0.07,,,1.05,Wunderground v.1.15,2013-04-05 05:12:00,
2013-04-05 01:19:00,61.2,60.1,29.69,SSE,164,20.0,25.0,96,0.47,,,1.12,Wunderground v.1.15,2013-04-05 05:19:00,
2013-04-05 01:24:00,61.5,60.3,29.71,SSE,166,9.0,16.0,96,0.84,,,1.19,Wunderground v.1.15,2013-04-05 05:24:00,
2013-04-05 01:30:00,61.6,60.4,29.71,South,171,4.0,12.0,96,0.27,,,1.24,Wunderground v.1.15,2013-04-05 05:30:00,
2013-04-05 01:35:00,61.6,60.4,29.70,South,172,9.0,12.0,96,0.18,,,1.26,Wunderground v.1.15,2013-04-05 05:35:00,
2013-04-05 01:41:00,61.8,60.9,29.69,SSW,199,10.0,15.0,97,0.14,,,1.27,Wunderground v.1.15,2013-04-05 05:41:00,
2013-04-05 01:47:00,61.8,60.9,29.68,South,188,14.0,18.0,97,0.20,,,1.30,Wunderground v.1.15,2013-04-05 05:47:00,
2013-04-05 01:53:00,61.8,60.9,29.68,SSW,192,15.0,15.0,97,0.17,,,1.31,Wunderground v.1.15,2013-04-05 05:53:00,
2013-04-05 01:58:00,62.1,61.2,29.68,South,190,6.0,15.0,97,0.07,,,1.31,Wunderground v.1.15,2013-04-05 05:58:00,
2013-04-05 02:04:00,62.6,61.7,29.68,SW,224,5.0,17.0,97,0.04,,,1.31,Wunderground v.1.15,2013-04-05 06:04:00,
2013-04-05 02:09:00,62.1,60.9,29.68,SW,221,11.0,19.0,96,0.00,,,1.31,Wunderground v.1.15,2013-04-05 06:09:00,
2013-04-05 02:14:00,61.4,60.2,29.68,SSW,208,9.0,20.0,96,0.00,,,1.31,Wunderground v.1.15,2013-04-05 06:14:00,
2013-04-05 02:19:00,61.0,59.9,29.68,SW,229,18.0,20.0,96,0.00,,,1.31,Wunderground v.1.15,2013-04-05 06:19:00,
2013-04-05 02:24:00,60.9,59.8,29.68,SW,233,6.0,19.0,96,0.00,,,1.31,Wunderground v.1.15,2013-04-05 06:24:00,
2013-04-05 02:29:00,60.8,59.9,29.68,SSW,192,9.0,20.0,97,0.00,,,1.31,Wunderground v.1.15,2013-04-05 06:29:00,
2013-04-05 02:35:00,60.8,59.9,29.68,SW,221,13.0,15.0,97,0.00,,,1.31,Wunderground v.1.15,2013-04-05 06:35:00,
2013-04-05 02:40:00,60.7,59.8,29.67,SSE,167,10.0,16.0,97,0.00,,,1.31,Wunderground v.1.15,2013-04-05 06:40:00,
2013-04-05 02:45:00,60.5,59.6,29.67,SSW,203,5.0,16.0,97,0.00,,,1.31,Wunderground v.1.15,2013-04-05 06:45:00,
2013-04-05 02:50:00,60.3,59.4,29.67,South,170,16.0,18.0,97,0.00,,,1.31,Wunderground v.1.15,2013-04-05 06:50:00,
2013-04-05 02:55:00,60.4,59.5,29.67,SW,233,6.0,16.0,97,0.00,,,1.31,Wunderground v.1.15,2013-04-05 06:55:00,
2013-04-05 03:00:00,60.2,59.3,29.67,SW,223,11.0,11.0,97,0.00,,,1.31,Wunderground v.1.15,2013-04-05 07:00:00,
2013-04-05 03:05:00,59.7,58.6,29.67,SSW,200,11.0,17.0,96,0.00,,,1.31,Wunderground v.1.15,2013-04-05 07:05:00,
2013-04-05 03:10:00,59.1,58.0,29.67,SW,217,9.0,11.0,96,0.00,,,1.31,Wunderground v.1.15,2013-04-05 07:10:00,
2013-04-05 03:15:00,58.5,57.4,29.67,SW,229,7.0,17.0,96,0.00,,,1.31,Wunderground v.1.15,2013-04-05 07:15:00,
2013-04-05 03:20:00,58.1,57.3,29.67,SW,214,5.0,11.0,97,0.00,,,1.31,Wunderground v.1.15,2013-04-05 07:20:00,
2013-04-05 03:26:00,57.8,57.0,29.67,SW,219,13.0,16.0,97,0.00,,,1.31,Wunderground v.1.15,2013-04-05 07:26:00,
2013-04-05 03:31:00,57.4,56.6,29.67,SW,225,7.0,14.0,97,0.00,,,1.31,Wunderground v.1.15,2013-04-05 07:31:00,
2013-04-05 03:36:00,57.0,56.2,29.68,WSW,240,12.0,15.0,97,0.00,,,1.31,Wunderground v.1.15,2013-04-05 07:36:00,
2013-04-05 03:41:00,56.6,55.8,29.68,SW,226,9.0,11.0,97,0.00,,,1.31,Wunderground v.1.15,2013-04-05 07:41:00,
2013-04-05 03:47:00,56.3,55.5,29.68,SW,235,6.0,16.0,97,0.00,,,1.31,Wunderground v.1.15,2013-04-05 07:47:00,
2013-04-05 03:52:00,56.1,55.3,29.68,SW,229,6.0,11.0,97,0.00,,,1.31,Wunderground v.1.15,2013-04-05 07:52:00,
2013-04-05 03:57:00,56.1,55.3,29.68,SW,229,9.0,14.0,97,0.00,,,1.31,Wunderground v.1.15,2013-04-05 07:57:00,
2013-04-05 04:02:00,55.8,55.0,29.69,SW,229,9.0,13.0,97,0.00,,,1.31,Wunderground v.1.15,2013-04-05 08:02:00,
2013-04-05 04:07:00,55.6,54.8,29.69,SW,216,8.0,15.0,97,0.00,,,1.31,Wunderground v.1.15,2013-04-05 08:07:00,
2013-04-05 04:12:00,55.3,54.5,29.70,WSW,237,8.0,12.0,97,0.00,,,1.31,Wunderground v.1.15,2013-04-05 08:12:00,
2013-04-05 04:17:00,55.1,54.3,29.70,WSW,248,7.0,13.0,97,0.00,,,1.31,Wunderground v.1.15,2013-04-05 08:17:00,
2013-04-05 04:22:00,55.8,55.0,29.70,WSW,254,9.0,14.0,97,0.00,,,1.31,Wunderground v.1.15,2013-04-05 08:22:00,
2013-04-05 04:27:00,56.8,56.2,29.70,West,266,8.0,20.0,98,0.00,,,1.31,Wunderground v.1.15,2013-04-05 08:27:00,
2013-04-05 04:32:00,56.7,56.1,29.70,West,273,16.0,16.0,98,0.00,,,1.31,Wunderground v.1.15,2013-04-05 08:32:00,
2013-04-05 04:38:00,56.3,55.5,29.70,West,266,13.0,17.0,97,0.00,,,1.31,Wunderground v.1.15,2013-04-05 08:38:00,
2013-04-05 04:43:00,56.2,55.4,29.70,WNW,291,13.0,22.0,97,0.00,,,1.31,Wunderground v.1.15,2013-04-05 08:43:00,
2013-04-05 04:48:00,55.2,54.4,29.70,WNW,290,10.0,22.0,97,0.00,,,1.31,Wunderground v.1.15,2013-04-05 08:48:00,
2013-04-05 04:53:00,54.6,53.8,29.71,West,272,12.0,19.0,97,0.00,,,1.31,Wunderground v.1.15,2013-04-05 08:53:00,
2013-04-05 04:59:00,54.2,53.4,29.71,West,281,13.0,19.0,97,0.00,,,1.31,Wunderground v.1.15,2013-04-05 08:59:00,
2013-04-05 05:04:00,53.9,53.1,29.71,WNW,290,16.0,16.0,97,0.00,,,1.31,Wunderground v.1.15,2013-04-05 09:04:00,
2013-04-05 05:09:00,53.7,52.9,29.72,West,271,10.0,17.0,97,0.00,,,1.31,Wunderground v.1.15,2013-04-05 09:09:00,
2013-04-05 05:14:00,53.5,52.7,29.73,WNW,298,5.0,14.0,97,0.00,,,1.31,Wunderground v.1.15,2013-04-05 09:14:00,
2013-04-05 05:19:00,52.6,51.8,29.73,WNW,300,16.0,17.0,97,0.00,,,1.31,Wunderground v.1.15,2013-04-05 09:19:00,
2013-04-05 05:24:00,52.2,51.4,29.73,WNW,284,15.0,18.0,97,0.00,,,1.31,Wunderground v.1.15,2013-04-05 09:24:00,
2013-04-05 05:29:00,51.8,51.0,29.73,WNW,296,11.0,19.0,97,0.00,,,1.31,Wunderground v.1.15,2013-04-05 09:29:00,
2013-04-05 05:34:00,51.4,50.6,29.74,WNW,296,12.0,22.0,97,0.00,,,1.31,Wunderground v.1.15,2013-04-05 09:34:00,
2013-04-05 05:39:00,51.2,50.4,29.74,WNW,294,14.0,22.0,97,0.00,,,1.31,Wunderground v.1.15,2013-04-05 09:39:00,
2013-04-05 05:45:00,50.9,50.1,29.74,NW,306,18.0,18.0,97,0.00,,,1.31,Wunderground v.1.15,2013-04-05 09:45:00,
2013-04-05 05:50:00,50.7,49.9,29.74,NW,306,15.0,21.0,97,0.00,,,1.31,Wunderground v.1.15,2013-04-05 09:50:00,
2013-04-05 05:55:00,50.4,49.6,29.74,WNW,302,22.0,22.0,97,0.00,,,1.31,Wunderground v.1.15,2013-04-05 09:55:00,
2013-04-05 06:00:00,50.3,49.5,29.74,NW,316,11.0,22.0,97,0.00,,,1.31,Wunderground v.1.15,2013-04-05 10:00:00,
2013-04-05 06:05:00,50.1,49.3,29.74,NW,307,15.0,19.0,97,0.00,,,1.31,Wunderground v.1.15,2013-04-05 10:05:00,
2013-04-05 06:10:00,49.9,49.1,29.75,NW,305,10.0,14.0,97,0.00,,,1.31,Wunderground v.1.15,2013-04-05 10:10:00,
2013-04-05 06:15:00,49.6,48.8,29.75,NW,311,16.0,18.0,97,0.00,,,1.31,Wunderground v.1.15,2013-04-05 10:15:00,
2013-04-05 06:20:00,49.4,48.6,29.76,NW,313,14.0,18.0,97,0.00,,,1.31,Wunderground v.1.15,2013-04-05 10:20:00,
2013-04-05 06:25:00,49.4,48.6,29.76,NW,312,11.0,20.0,97,0.00,,,1.31,Wunderground v.1.15,2013-04-05 10:25:00,
2013-04-05 06:31:00,49.3,48.5,29.76,NW,310,10.0,14.0,97,0.00,,,1.31,Wunderground v.1.15,2013-04-05 10:31:00,
2013-04-05 06:36:00,49.2,48.4,29.75,NW,323,15.0,17.0,97,0.00,,,1.31,Wunderground v.1.15,2013-04-05 10:36:00,
2013-04-05 06:41:00,49.1,48.3,29.76,NNW,329,15.0,18.0,97,0.00,,,1.31,Wunderground v.1.15,2013-04-05 10:41:00,
2013-04-05 06:46:00,49.0,48.2,29.77,NW,307,13.0,19.0,97,0.00,,,1.31,Wunderground v.1.15,2013-04-05 10:46:00,
2013-04-05 06:51:00,48.9,48.1,29.77,NW,317,13.0,21.0,97,0.00,,,1.31,Wunderground v.1.15,2013-04-05 10:51:00,
2013-04-05 06:56:00,48.7,47.9,29.77,NW,322,18.0,21.0,97,0.00,,,1.31,Wunderground v.1.15,2013-04-05 10:56:00,
2013-04-05 07:01:00,48.6,47.8,29.77,NW,322,17.0,17.0,97,0.00,,,1.31,Wunderground v.1.15,2013-04-05 11:01:00,
2013-04-05 07:06:00,48.5,47.7,29.78,NNW,329,15.0,20.0,97,0.00,,,1.31,Wunderground v.1.15,2013-04-05 11:06:00,
2013-04-05 07:12:00,48.6,47.8,29.79,NW,325,14.0,16.0,97,0.00,,,1.31,Wunderground v.1.15,2013-04-05 11:12:00,
2013-04-05 07:17:00,48.3,47.5,29.79,NNW,332,20.0,20.0,97,0.00,,,1.31,Wunderground v.1.15,2013-04-05 11:17:00,
2013-04-05 07:22:00,48.4,47.6,29.79,NNW,346,19.0,19.0,97,0.00,,,1.31,Wunderground v.1.15,2013-04-05 11:22:00,
2013-04-05 07:27:00,48.6,47.8,29.79,NW,325,17.0,19.0,97,0.00,,,1.31,Wunderground v.1.15,2013-04-05 11:27:00,
2013-04-05 07:32:00,48.5,47.7,29.79,NNW,341,15.0,19.0,97,0.00,,,1.31,Wunderground v.1.15,2013-04-05 11:32:00,
2013-04-05 07:37:00,48.4,47.3,29.79,NNW,335,13.0,23.0,96,0.00,,,1.31,Wunderground v.1.15,2013-04-05 11:37:00,
2013-04-05 07:42:00,48.4,47.3,29.79,NNW,346,18.0,20.0,96,0.00,,,1.31,Wunderground v.1.15,2013-04-05 11:42:00,
2013-04-05 07:47:00,48.5,47.4,29.80,NNW,336,13.0,20.0,96,0.00,,,1.31,Wunderground v.1.15,2013-04-05 11:47:00,
2013-04-05 07:52:00,48.6,47.5,29.80,NNW,342,14.0,19.0,96,0.00,,,1.31,Wunderground v.1.15,2013-04-05 11:52:00,
2013-04-05 07:57:00,48.7,47.6,29.80,North,355,21.0,21.0,96,0.00,,,1.31,Wunderground v.1.15,2013-04-05 11:57:00,
2013-04-05 08:02:00,48.5,47.4,29.80,North,360,22.0,22.0,96,0.00,,,1.31,Wunderground v.1.15,2013-04-05 12:02:00,
2013-04-05 08:07:00,48.8,47.7,29.80,North,360,18.0,22.0,96,0.00,,,1.31,Wunderground v.1.15,2013-04-05 12:07:00,
2013-04-05 08:13:00,48.7,47.3,29.80,North,5,16.0,21.0,95,0.00,,,1.31,Wunderground v.1.15,2013-04-05 12:13:00,
2013-04-05 08:18:00,48.9,47.5,29.81,NNE,20,18.0,22.0,95,0.00,,,1.31,Wunderground v.1.15,2013-04-05 12:18:00,
2013-04-05 08:23:00,48.9,47.5,29.81,North,360,17.0,24.0,95,0.00,,,1.31,Wunderground v.1.15,2013-04-05 12:23:00,
2013-04-05 08:28:00,49.1,47.7,29.81,North,5,22.0,24.0,95,0.00,,,1.31,Wunderground v.1.15,2013-04-05 12:28:00,
2013-04-05 08:33:00,49.2,47.8,29.82,North,5,16.0,22.0,95,0.00,,,1.31,Wunderground v.1.15,2013-04-05 12:33:00,
2013-04-05 08:38:00,49.3,47.9,29.82,North,360,18.0,22.0,95,0.00,,,1.31,Wunderground v.1.15,2013-04-05 12:38:00,
2013-04-05 08:44:00,49.4,48.0,29.83,North,355,16.0,20.0,95,0.00,,,1.31,Wunderground v.1.15,2013-04-05 12:44:00,
2013-04-05 08:49:00,49.2,47.5,29.83,North,355,17.0,20.0,94,0.00,,,1.31,Wunderground v.1.15,2013-04-05 12:49:00,
2013-04-05 08:54:00,49.3,47.6,29.83,North,360,19.0,20.0,94,0.00,,,1.31,Wunderground v.1.15,2013-04-05 12:54:00,
2013-04-05 08:59:00,49.3,47.6,29.83,North,5,18.0,23.0,94,0.00,,,1.31,Wunderground v.1.15,2013-04-05 12:59:00,
2013-04-05 09:04:00,49.4,47.7,29.83,North,5,17.0,19.0,94,0.00,,,1.31,Wunderground v.1.15,2013-04-05 13:04:00,
2013-04-05 09:09:00,49.6,47.9,29.83,North,5,15.0,20.0,94,0.00,,,1.31,Wunderground v.1.15,2013-04-05 13:09:00,
2013-04-05 09:14:00,49.7,48.0,29.84,North,5,17.0,18.0,94,0.00,,,1.31,Wunderground v.1.15,2013-04-05 13:14:00,
2013-04-05 09:19:00,49.8,48.1,29.83,North,9,15.0,18.0,94,0.00,,,1.31,Wunderground v.1.15,2013-04-05 13:19:00,
2013-04-05 09:24:00,49.8,48.1,29.84,NNE,21,13.0,15.0,94,0.00,,,1.31,Wunderground v.1.15,2013-04-05 13:24:00,
2013-04-05 09:30:00,50.1,48.4,29.84,North,5,13.0,18.0,94,0.00,,,1.31,Wunderground v.1.15,2013-04-05 13:30:00,
2013-04-05 09:35:00,50.1,48.4,29.84,North,360,16.0,18.0,94,0.00,,,1.31,Wunderground v.1.15,2013-04-05 13:35:00,
2013-04-05 09:40:00,50.2,48.5,29.84,North,9,17.0,17.0,94,0.00,,,1.31,Wunderground v.1.15,2013-04-05 13:40:00,
2013-04-05 09:45:00,50.1,48.4,29.83,North,11,15.0,17.0,94,0.00,,,1.31,Wunderground v.1.15,2013-04-05 13:45:00,
2013-04-05 09:50:00,50.2,48.5,29.82,NNE,17,12.0,20.0,94,0.00,,,1.31,Wunderground v.1.15,2013-04-05 13:50:00,
2013-04-05 09:55:00,50.3,48.6,29.83,NNE,19,12.0,20.0,94,0.00,,,1.31,Wunderground v.1.15,2013-04-05 13:55:00,
2013-04-05 10:00:00,50.3,48.6,29.83,NNE,15,13.0,17.0,94,0.00,,,1.31,Wunderground v.1.15,2013-04-05 14:00:00,
2013-04-05 10:06:00,50.3,48.6,29.83,NNE,25,12.0,18.0,94,0.00,,,1.31,Wunderground v.1.15,2013-04-05 14:06:00,
2013-04-05 10:11:00,50.5,48.8,29.84,NNE,27,16.0,16.0,94,0.00,,,1.31,Wunderground v.1.15,2013-04-05 14:11:00,
2013-04-05 10:17:00,50.6,48.7,29.86,NNE,29,13.0,17.0,93,0.00,,,1.31,Wunderground v.1.15,2013-04-05 14:17:00,
2013-04-05 10:22:00,50.9,49.2,29.86,NNE,33,10.0,16.0,94,0.00,,,1.31,Wunderground v.1.15,2013-04-05 14:22:00,
2013-04-05 10:27:00,51.0,49.0,29.84,NNE,20,10.0,16.0,93,0.00,,,1.31,Wunderground v.1.15,2013-04-05 14:27:00,
2013-04-05 10:32:00,51.2,49.2,29.83,NNE,30,9.0,14.0,93,0.00,,,1.31,Wunderground v.1.15,2013-04-05 14:32:00,
2013-04-05 10:37:00,51.3,49.3,29.83,NE,34,15.0,16.0,93,0.00,,,1.31,Wunderground v.1.15,2013-04-05 14:37:00,
2013-04-05 10:42:00,51.4,49.2,29.83,NNE,20,11.0,18.0,92,0.00,,,1.31,Wunderground v.1.15,2013-04-05 14:42:00,
2013-04-05 10:48:00,51.4,49.2,29.82,NNE,27,19.0,20.0,92,0.00,,,1.31,Wunderground v.1.15,2013-04-05 14:48:00,
2013-04-05 10:53:00,51.5,49.3,29.81,NNE,31,13.0,19.0,92,0.00,,,1.31,Wunderground v.1.15,2013-04-05 14:53:00,
2013-04-05 10:58:00,51.8,49.5,29.82,NNE,14,21.0,21.0,92,0.00,,,1.31,Wunderground v.1.15,2013-04-05 14:58:00,
2013-04-05 11:03:00,51.8,49.3,29.83,NNE,21,15.0,18.0,91,0.00,,,1.31,Wunderground v.1.15,2013-04-05 15:03:00,
2013-04-05 11:08:00,51.9,49.4,29.84,NNE,17,11.0,18.0,91,0.00,,,1.31,Wunderground v.1.15,2013-04-05 15:08:00,
2013-04-05 11:13:00,51.9,49.4,29.85,North,360,19.0,19.0,91,0.00,,,1.31,Wunderground v.1.15,2013-04-05 15:13:00,
2013-04-05 11:18:00,51.7,49.5,29.85,North,10,16.0,19.0,92,0.00,,,1.31,Wunderground v.1.15,2013-04-05 15:18:00,
2013-04-05 11:23:00,51.7,49.2,29.87,North,5,13.0,17.0,91,0.00,,,1.31,Wunderground v.1.15,2013-04-05 15:23:00,
2013-04-05 11:28:00,51.8,49.3,29.87,North,5,13.0,17.0,91,0.00,,,1.31,Wunderground v.1.15,2013-04-05 15:28:00,
2013-04-05 11:34:00,51.7,48.9,29.86,NNE,13,14.0,15.0,90,0.00,,,1.31,Wunderground v.1.15,2013-04-05 15:34:00,
2013-04-05 11:39:00,51.9,49.1,29.85,NNE,27,11.0,16.0,90,0.00,,,1.31,Wunderground v.1.15,2013-04-05 15:39:00,
2013-04-05 11:45:00,52.1,49.3,29.86,NNE,25,8.0,15.0,90,0.00,,,1.31,Wunderground v.1.15,2013-04-05 15:45:00,
2013-04-05 11:50:00,52.2,49.4,29.86,NNE,15,12.0,17.0,90,0.00,,,1.31,Wunderground v.1.15,2013-04-05 15:50:00,
2013-04-05 11:55:00,52.2,49.4,29.86,NNE,19,13.0,16.0,90,0.00,,,1.31,Wunderground v.1.15,2013-04-05 15:55:00,
2013-04-05 12:00:00,52.1,49.3,29.88,NNE,13,12.0,14.0,90,0.00,,,1.31,Wunderground v.1.15,2013-04-05 16:00:00,
2013-04-05 12:05:00,52.0,48.9,29.86,NNE,18,10.0,14.0,89,0.00,,,1.31,Wunderground v.1.15,2013-04-05 16:05:00,
2013-04-05 12:10:00,51.9,48.8,29.85,NE,36,13.0,13.0,89,0.00,,,0.00,Wunderground v.1.15,2013-04-05 16:10:00,
2013-04-05 12:16:00,51.8,48.7,29.86,NNE,20,12.0,20.0,89,0.00,,,0.00,Wunderground v.1.15,2013-04-05 16:16:00,
2013-04-05 12:21:00,51.6,48.5,29.88,NNE,18,14.0,14.0,89,0.00,,,0.00,Wunderground v.1.15,2013-04-05 16:21:00,
2013-04-05 12:27:00,51.8,49.0,29.88,NNE,16,9.0,14.0,90,0.00,,,0.00,Wunderground v.1.15,2013-04-05 16:27:00,
2013-04-05 12:32:00,51.6,48.5,29.86,NNE,29,10.0,14.0,89,0.00,,,0.00,Wunderground v.1.15,2013-04-05 16:32:00,
2013-04-05 12:37:00,51.6,48.5,29.86,NE,35,14.0,16.0,89,0.00,,,0.00,Wunderground v.1.15,2013-04-05 16:37:00,
2013-04-05 12:43:00,51.7,48.6,29.87,NNE,17,16.0,17.0,89,0.00,,,0.00,Wunderground v.1.15,2013-04-05 16:43:00,
2013-04-05 12:48:00,51.7,48.6,29.87,North,5,20.0,20.0,89,0.00,,,0.00,Wunderground v.1.15,2013-04-05 16:48:00,
2013-04-05 12:53:00,51.7,48.3,29.87,North,360,20.0,21.0,88,0.00,,,0.00,Wunderground v.1.15,2013-04-05 16:53:00,
2013-04-05 12:58:00,51.7,48.3,29.87,North,5,16.0,21.0,88,0.00,,,0.00,Wunderground v.1.15,2013-04-05 16:58:00,
2013-04-05 13:03:00,51.7,48.3,29.88,North,360,19.0,22.0,88,0.00,,,0.00,Wunderground v.1.15,2013-04-05 17:03:00,
2013-04-05 13:08:00,51.6,48.2,29.86,North,10,14.0,22.0,88,0.00,,,0.00,Wunderground v.1.15,2013-04-05 17:08:00,
2013-04-05 13:13:00,51.8,48.7,29.86,North,360,14.0,17.0,89,0.00,,,0.00,Wunderground v.1.15,2013-04-05 17:13:00,
2013-04-05 13:19:00,51.5,48.7,29.85,North,350,14.0,17.0,90,0.00,,,0.00,Wunderground v.1.15,2013-04-05 17:19:00,
2013-04-05 13:24:00,51.2,48.1,29.86,North,355,15.0,17.0,89,0.00,,,0.00,Wunderground v.1.15,2013-04-05 17:24:00,
2013-04-05 13:29:00,51.0,48.2,29.87,North,355,13.0,17.0,90,0.00,,,0.00,Wunderground v.1.15,2013-04-05 17:29:00,
2013-04-05 13:34:00,51.0,48.2,29.86,North,5,13.0,15.0,90,0.00,,,0.00,Wunderground v.1.15,2013-04-05 17:34:00,
2013-04-05 13:39:00,50.7,47.9,29.85,North,360,16.0,18.0,90,0.00,,,0.00,Wunderground v.1.15,2013-04-05 17:39:00,
2013-04-05 13:44:00,50.6,47.5,29.86,North,360,13.0,18.0,89,0.00,,,0.00,Wunderground v.1.15,2013-04-05 17:44:00,
2013-04-05 13:49:00,50.8,47.7,29.87,North,351,13.0,18.0,89,0.00,,,0.00,Wunderground v.1.15,2013-04-05 17:49:00,
2013-04-05 13:55:00,50.8,48.0,29.86,North,360,14.0,16.0,90,0.00,,,0.00,Wunderground v.1.15,2013-04-05 17:55:00,
2013-04-05 14:00:00,51.0,47.9,29.87,North,350,13.0,13.0,89,0.00,,,0.00,Wunderground v.1.15,2013-04-05 18:00:00,
2013-04-05 14:05:00,50.8,47.7,29.88,North,350,13.0,15.0,89,0.00,,,0.00,Wunderground v.1.15,2013-04-05 18:05:00,
2013-04-05 14:10:00,50.8,47.7,29.86,North,5,13.0,13.0,89,0.00,,,0.00,Wunderground v.1.15,2013-04-05 18:10:00,
2013-04-05 14:15:00,50.9,47.8,29.88,North,350,12.0,14.0,89,0.00,,,0.00,Wunderground v.1.15,2013-04-05 18:15:00,
2013-04-05 14:20:00,50.8,47.7,29.87,North,360,11.0,12.0,89,0.00,,,0.00,Wunderground v.1.15,2013-04-05 18:20:00,
2013-04-05 14:25:00,50.9,47.8,29.87,North,355,8.0,12.0,89,0.00,,,0.00,Wunderground v.1.15,2013-04-05 18:25:00,
2013-04-05 14:30:00,50.9,47.8,29.86,North,355,10.0,10.0,89,0.00,,,0.00,Wunderground v.1.15,2013-04-05 18:30:00,
2013-04-05 14:35:00,50.9,47.8,29.87,North,351,9.0,10.0,89,0.00,,,0.00,Wunderground v.1.15,2013-04-05 18:35:00,
2013-04-05 14:40:00,51.0,47.6,29.87,North,5,12.0,12.0,88,0.00,,,0.00,Wunderground v.1.15,2013-04-05 18:40:00,
2013-04-05 14:45:00,51.0,47.9,29.86,North,5,9.0,12.0,89,0.00,,,0.00,Wunderground v.1.15,2013-04-05 18:45:00,
2013-04-05 14:50:00,51.1,48.0,29.88,NNW,334,10.0,13.0,89,0.00,,,0.00,Wunderground v.1.15,2013-04-05 18:50:00,
2013-04-05 14:55:00,51.2,48.1,29.89,NNW,337,9.0,13.0,89,0.00,,,0.00,Wunderground v.1.15,2013-04-05 18:55:00,
2013-04-05 15:02:00,51.1,47.7,29.85,North,355,9.0,10.0,88,0.00,,,0.00,Wunderground v.1.15,2013-04-05 19:02:00,
2013-04-05 15:07:00,51.1,47.7,29.86,NNW,341,11.0,11.0,88,0.00,,,0.00,Wunderground v.1.15,2013-04-05 19:07:00,
2013-04-05 15:12:00,51.1,47.7,29.86,NNW,344,10.0,11.0,88,0.00,,,0.00,Wunderground v.1.15,2013-04-05 19:12:00,
2013-04-05 15:17:00,51.1,47.7,29.86,NNW,346,9.0,11.0,88,0.00,,,0.00,Wunderground v.1.15,2013-04-05 19:17:00,
2013-04-05 15:22:00,51.2,47.8,29.86,NNW,342,11.0,13.0,88,0.00,,,0.00,Wunderground v.1.15,2013-04-05 19:22:00,
2013-04-05 15:27:00,51.2,47.8,29.85,North,360,10.0,13.0,88,0.00,,,0.00,Wunderground v.1.15,2013-04-05 19:27:00,
2013-04-05 15:32:00,51.4,48.0,29.85,North,5,9.0,12.0,88,0.00,,,0.00,Wunderground v.1.15,2013-04-05 19:32:00,
2013-04-05 15:37:00,51.3,47.9,29.84,North,360,7.0,12.0,88,0.00,,,0.00,Wunderground v.1.15,2013-04-05 19:37:00,
2013-04-05 15:42:00,51.3,47.6,29.85,North,355,9.0,11.0,87,0.00,,,0.00,Wunderground v.1.15,2013-04-05 19:42:00,
2013-04-05 15:47:00,51.3,47.6,29.85,North,355,11.0,12.0,87,0.00,,,0.00,Wunderground v.1.15,2013-04-05 19:47:00,
2013-04-05 15:53:00,51.5,48.1,29.84,North,5,9.0,10.0,88,0.00,,,0.00,Wunderground v.1.15,2013-04-05 19:53:00,
2013-04-05 15:58:00,51.7,48.0,29.82,North,10,10.0,10.0,87,0.00,,,0.00,Wunderground v.1.15,2013-04-05 19:58:00,
2013-04-05 16:03:00,51.8,48.1,29.83,NNE,12,7.0,11.0,87,0.00,,,0.00,Wunderground v.1.15,2013-04-05 20:03:00,
2013-04-05 16:08:00,51.7,47.6,29.84,North,5,13.0,14.0,86,0.00,,,0.00,Wunderground v.1.15,2013-04-05 20:08:00,
2013-04-05 16:13:00,51.8,47.7,29.85,North,5,12.0,12.0,86,0.00,,,0.00,Wunderground v.1.15,2013-04-05 20:13:00,
2013-04-05 16:18:00,51.9,48.2,29.85,North,5,10.0,12.0,87,0.00,,,0.00,Wunderground v.1.15,2013-04-05 20:18:00,
2013-04-05 16:23:00,52.0,48.3,29.85,North,5,10.0,12.0,87,0.00,,,0.00,Wunderground v.1.15,2013-04-05 20:23:00,
2013-04-05 16:28:00,52.1,48.0,29.85,North,5,6.0,12.0,86,0.00,,,0.00,Wunderground v.1.15,2013-04-05 20:28:00,
2013-04-05 16:34:00,52.2,48.1,29.85,NNE,19,10.0,11.0,86,0.00,,,0.00,Wunderground v.1.15,2013-04-05 20:34:00,
2013-04-05 16:39:00,52.2,48.1,29.85,North,11,10.0,11.0,86,0.00,,,0.00,Wunderground v.1.15,2013-04-05 20:39:00,
2013-04-05 16:45:00,52.5,48.4,29.85,North,355,11.0,13.0,86,0.00,,,0.00,Wunderground v.1.15,2013-04-05 20:45:00,
2013-04-05 16:50:00,52.5,48.1,29.85,North,360,7.0,13.0,85,0.00,,,0.00,Wunderground v.1.15,2013-04-05 20:50:00,
2013-04-05 16:55:00,52.6,48.2,29.85,NNE,19,7.0,10.0,85,0.00,,,0.00,Wunderground v.1.15,2013-04-05 20:55:00,
2013-04-05 17:00:00,52.6,48.2,29.85,NNE,15,6.0,8.0,85,0.00,,,0.00,Wunderground v.1.15,2013-04-05 21:00:00,
2013-04-05 17:05:00,52.6,48.2,29.86,North,360,9.0,11.0,85,0.00,,,0.00,Wunderground v.1.15,2013-04-05 21:05:00,
2013-04-05 17:10:00,52.7,48.3,29.85,North,5,9.0,9.0,85,0.00,,,0.00,Wunderground v.1.15,2013-04-05 21:10:00,
2013-04-05 17:16:00,52.8,48.4,29.86,North,5,8.0,10.0,85,0.00,,,0.00,Wunderground v.1.15,2013-04-05 21:16:00,
2013-04-05 17:21:00,52.8,48.4,29.86,North,5,9.0,9.0,85,0.00,,,0.00,Wunderground v.1.15,2013-04-05 21:21:00,
2013-04-05 17:26:00,52.8,48.4,29.86,North,5,7.0,9.0,85,0.00,,,0.00,Wunderground v.1.15,2013-04-05 21:26:00,
2013-04-05 17:31:00,53.0,48.6,29.86,North,5,6.0,8.0,85,0.00,,,0.00,Wunderground v.1.15,2013-04-05 21:31:00,
2013-04-05 17:36:00,53.1,48.4,29.86,North,5,7.0,10.0,84,0.00,,,0.00,Wunderground v.1.15,2013-04-05 21:36:00,
2013-04-05 17:41:00,53.0,48.3,29.86,North,5,7.0,7.0,84,0.00,,,0.00,Wunderground v.1.15,2013-04-05 21:41:00,
2013-04-05 17:46:00,53.0,48.3,29.86,North,355,8.0,10.0,84,0.00,,,0.00,Wunderground v.1.15,2013-04-05 21:46:00,
2013-04-05 17:51:00,53.0,48.3,29.87,North,355,7.0,8.0,84,0.00,,,0.00,Wunderground v.1.15,2013-04-05 21:51:00,
2013-04-05 17:56:00,53.0,48.3,29.87,North,355,5.0,8.0,84,0.00,,,0.00,Wunderground v.1.15,2013-04-05 21:56:00,
2013-04-05 18:02:00,53.1,48.4,29.87,North,355,7.0,7.0,84,0.00,,,0.00,Wunderground v.1.15,2013-04-05 22:02:00,
2013-04-05 18:07:00,53.2,48.5,29.87,North,355,6.0,8.0,84,0.00,,,0.00,Wunderground v.1.15,2013-04-05 22:07:00,
2013-04-05 18:12:00,53.2,48.5,29.87,North,355,7.0,7.0,84,0.00,,,0.00,Wunderground v.1.15,2013-04-05 22:12:00,
2013-04-05 18:17:00,53.2,48.2,29.87,North,355,7.0,7.0,83,0.00,,,0.00,Wunderground v.1.15,2013-04-05 22:17:00,
2013-04-05 18:22:00,53.2,47.8,29.87,North,355,6.0,8.0,82,0.00,,,0.00,Wunderground v.1.15,2013-04-05 22:22:00,
2013-04-05 18:27:00,53.4,48.4,29.87,North,355,6.0,8.0,83,0.00,,,0.00,Wunderground v.1.15,2013-04-05 22:27:00,
2013-04-05 18:32:00,53.4,48.4,29.87,North,355,6.0,7.0,83,0.00,,,0.00,Wunderground v.1.15,2013-04-05 22:32:00,
2013-04-05 18:38:00,53.4,48.4,29.87,North,355,6.0,7.0,83,0.00,,,0.00,Wunderground v.1.15,2013-04-05 22:38:00,
2013-04-05 18:43:00,53.3,48.3,29.87,North,355,6.0,9.0,83,0.00,,,0.00,Wunderground v.1.15,2013-04-05 22:43:00,
2013-04-05 18:48:00,53.5,48.8,29.88,North,355,7.0,9.0,84,0.00,,,0.00,Wunderground v.1.15,2013-04-05 22:48:00,
2013-04-05 18:53:00,53.5,48.5,29.88,North,355,6.0,9.0,83,0.00,,,0.00,Wunderground v.1.15,2013-04-05 22:53:00,
2013-04-05 18:59:00,53.3,48.3,29.88,North,355,6.0,9.0,83,0.00,,,0.00,Wunderground v.1.15,2013-04-05 22:59:00,
2013-04-05 19:04:00,53.3,48.3,29.88,North,355,4.0,7.0,83,0.00,,,0.00,Wunderground v.1.15,2013-04-05 23:04:00,
2013-04-05 19:09:00,53.4,48.7,29.88,North,355,5.0,7.0,84,0.00,,,0.00,Wunderground v.1.15,2013-04-05 23:09:00,
2013-04-05 19:14:00,53.2,48.5,29.89,North,355,4.0,5.0,84,0.00,,,0.00,Wunderground v.1.15,2013-04-05 23:14:00,
2013-04-05 19:19:00,53.2,48.5,29.89,North,355,6.0,6.0,84,0.00,,,0.00,Wunderground v.1.15,2013-04-05 23:19:00,
2013-04-05 19:24:00,53.0,48.3,29.90,North,355,3.0,5.0,84,0.00,,,0.00,Wunderground v.1.15,2013-04-05 23:24:00,
2013-04-05 19:29:00,53.0,48.3,29.90,North,355,2.0,5.0,84,0.00,,,0.00,Wunderground v.1.15,2013-04-05 23:29:00,
2013-04-05 19:35:00,52.9,48.2,29.90,North,355,3.0,4.0,84,0.00,,,0.00,Wunderground v.1.15,2013-04-05 23:35:00,
2013-04-05 19:40:00,52.9,48.5,29.90,North,355,2.0,4.0,85,0.00,,,0.00,Wunderground v.1.15,2013-04-05 23:40:00,
2013-04-05 19:45:00,52.9,48.5,29.90,North,355,2.0,4.0,85,0.00,,,0.00,Wunderground v.1.15,2013-04-05 23:45:00,
2013-04-05 19:50:00,52.7,48.3,29.91,North,355,3.0,3.0,85,0.00,,,0.00,Wunderground v.1.15,2013-04-05 23:50:00,
2013-04-05 19:55:00,52.5,48.1,29.92,North,355,2.0,4.0,85,0.00,,,0.00,Wunderground v.1.15,2013-04-05 23:55:00,
2013-04-05 20:00:00,52.5,48.4,29.92,North,355,0.0,2.0,86,0.00,,,0.00,Wunderground v.1.15,2013-04-06 00:00:00,
2013-04-05 20:06:00,52.4,48.3,29.92,North,355,0.0,2.0,86,0.00,,,0.00,Wunderground v.1.15,2013-04-06 00:06:00,
2013-04-05 20:11:00,52.3,48.2,29.92,North,355,0.0,1.0,86,0.00,,,0.00,Wunderground v.1.15,2013-04-06 00:11:00,
2013-04-05 20:16:00,52.3,48.2,29.92,North,355,0.0,1.0,86,0.00,,,0.00,Wunderground v.1.15,2013-04-06 00:16:00,
2013-04-05 20:21:00,52.0,47.9,29.93,North,355,0.0,0.0,86,0.00,,,0.00,Wunderground v.1.15,2013-04-06 00:21:00,
2013-04-05 20:26:00,51.7,47.6,29.93,North,355,0.0,0.0,86,0.00,,,0.00,Wunderground v.1.15,2013-04-06 00:26:00,
2013-04-05 20:31:00,51.4,47.4,29.93,North,355,0.0,0.0,86,0.00,,,0.00,Wunderground v.1.15,2013-04-06 00:31:00,
2013-04-05 20:37:00,51.0,47.3,29.93,North,355,0.0,0.0,87,0.00,,,0.00,Wunderground v.1.15,2013-04-06 00:37:00,
2013-04-05 20:42:00,50.8,47.1,29.94,North,355,0.0,0.0,87,0.00,,,0.00,Wunderground v.1.15,2013-04-06 00:42:00,
2013-04-05 20:47:00,50.5,46.8,29.94,North,355,0.0,0.0,87,0.00,,,0.00,Wunderground v.1.15,2013-04-06 00:47:00,
2013-04-05 20:52:00,50.3,46.9,29.94,North,355,0.0,0.0,88,0.00,,,0.00,Wunderground v.1.15,2013-04-06 00:52:00,
2013-04-05 20:57:00,50.2,46.8,29.94,North,355,0.0,0.0,88,0.00,,,0.00,Wunderground v.1.15,2013-04-06 00:57:00,
2013-04-05 21:02:00,50.1,47.0,29.94,North,355,0.0,0.0,89,0.00,,,0.00,Wunderground v.1.15,2013-04-06 01:02:00,
2013-04-05 21:07:00,50.0,46.9,29.94,North,355,0.0,0.0,89,0.00,,,0.00,Wunderground v.1.15,2013-04-06 01:07:00,
2013-04-05 21:12:00,50.0,47.2,29.95,North,355,2.0,2.0,90,0.00,,,0.00,Wunderground v.1.15,2013-04-06 01:12:00,
2013-04-05 21:17:00,50.1,47.3,29.94,North,355,2.0,3.0,90,0.00,,,0.00,Wunderground v.1.15,2013-04-06 01:17:00,
2013-04-05 21:22:00,50.1,47.3,29.95,North,355,0.0,2.0,90,0.00,,,0.00,Wunderground v.1.15,2013-04-06 01:22:00,
2013-04-05 21:27:00,50.4,47.9,29.95,North,355,0.0,2.0,91,0.00,,,0.00,Wunderground v.1.15,2013-04-06 01:27:00,
2013-04-05 21:32:00,50.5,48.0,29.96,North,355,0.0,0.0,91,0.00,,,0.00,Wunderground v.1.15,2013-04-06 01:32:00,
2013-04-05 21:38:00,50.4,47.9,29.97,North,355,0.0,0.0,91,0.00,,,0.00,Wunderground v.1.15,2013-04-06 01:38:00,
2013-04-05 21:43:00,50.4,47.9,29.96,North,355,0.0,0.0,91,0.00,,,0.00,Wunderground v.1.15,2013-04-06 01:43:00,
2013-04-05 21:48:00,50.2,47.4,29.97,North,355,0.0,0.0,90,0.00,,,0.00,Wunderground v.1.15,2013-04-06 01:48:00,
2013-04-05 21:53:00,49.9,47.4,29.97,North,355,0.0,0.0,91,0.00,,,0.00,Wunderground v.1.15,2013-04-06 01:53:00,
2013-04-05 21:58:00,49.6,46.8,29.97,North,355,0.0,0.0,90,0.00,,,0.00,Wunderground v.1.15,2013-04-06 01:58:00,
2013-04-05 22:03:00,49.3,46.8,29.97,North,355,0.0,0.0,91,0.00,,,0.00,Wunderground v.1.15,2013-04-06 02:03:00,
2013-04-05 22:09:00,49.0,46.5,29.97,North,355,0.0,0.0,91,0.00,,,0.00,Wunderground v.1.15,2013-04-06 02:09:00,
2013-04-05 22:14:00,48.7,46.2,29.97,North,355,0.0,0.0,91,0.00,,,0.00,Wunderground v.1.15,2013-04-06 02:14:00,
2013-04-05 22:19:00,48.5,46.0,29.97,North,355,0.0,0.0,91,0.00,,,0.00,Wunderground v.1.15,2013-04-06 02:19:00,
2013-04-05 22:24:00,48.2,45.7,29.97,North,355,0.0,0.0,91,0.00,,,0.00,Wunderground v.1.15,2013-04-06 02:24:00,
2013-04-05 22:29:00,47.9,45.4,29.96,North,355,0.0,0.0,91,0.00,,,0.00,Wunderground v.1.15,2013-04-06 02:29:00,
2013-04-05 22:34:00,47.7,45.2,29.97,North,355,0.0,0.0,91,0.00,,,0.00,Wunderground v.1.15,2013-04-06 02:34:00,
2013-04-05 22:39:00,47.5,45.3,29.97,North,355,0.0,0.0,92,0.00,,,0.00,Wunderground v.1.15,2013-04-06 02:39:00,
2013-04-05 22:45:00,47.4,45.2,29.96,North,355,0.0,0.0,92,0.00,,,0.00,Wunderground v.1.15,2013-04-06 02:45:00,
2013-04-05 22:50:00,47.3,45.1,29.96,North,355,0.0,0.0,92,0.00,,,0.00,Wunderground v.1.15,2013-04-06 02:50:00,
2013-04-05 22:55:00,47.1,44.9,29.96,North,355,0.0,0.0,92,0.00,,,0.00,Wunderground v.1.15,2013-04-06 02:55:00,
2013-04-05 23:00:00,46.9,44.7,29.96,North,355,0.0,0.0,92,0.00,,,0.00,Wunderground v.1.15,2013-04-06 03:00:00,
2013-04-05 23:05:00,46.7,44.5,29.96,North,355,0.0,0.0,92,0.00,,,0.00,Wunderground v.1.15,2013-04-06 03:05:00,
2013-04-05 23:10:00,46.8,44.9,29.96,North,355,0.0,0.0,93,0.00,,,0.00,Wunderground v.1.15,2013-04-06 03:10:00,
2013-04-05 23:15:00,47.0,45.1,29.96,North,355,0.0,0.0,93,0.00,,,0.00,Wunderground v.1.15,2013-04-06 03:15:00,
2013-04-05 23:21:00,47.1,45.2,29.96,North,355,0.0,0.0,93,0.00,,,0.00,Wunderground v.1.15,2013-04-06 03:21:00,
2013-04-05 23:26:00,47.0,45.1,29.96,North,355,0.0,0.0,93,0.00,,,0.00,Wunderground v.1.15,2013-04-06 03:26:00,
2013-04-05 23:31:00,46.8,44.9,29.96,North,355,0.0,0.0,93,0.00,,,0.00,Wunderground v.1.15,2013-04-06 03:31:00,
2013-04-05 23:36:00,46.6,44.7,29.96,North,355,0.0,0.0,93,0.00,,,0.00,Wunderground v.1.15,2013-04-06 03:36:00,
2013-04-05 23:41:00,46.6,44.7,29.96,North,355,0.0,0.0,93,0.00,,,0.00,Wunderground v.1.15,2013-04-06 03:41:00,
2013-04-05 23:46:00,46.7,45.1,29.96,North,355,0.0,0.0,94,0.00,,,0.00,Wunderground v.1.15,2013-04-06 03:46:00,
2013-04-05 23:51:00,47.1,45.5,29.97,North,355,0.0,0.0,94,0.00,,,0.00,Wunderground v.1.15,2013-04-06 03:51:00,
2013-04-05 23:57:00,48.0,46.6,29.97,North,355,1.0,2.0,95,0.00,,,0.00,Wunderground v.1.15,2013-04-06 03:57:00,